createdAt,value
2023-05-21T00:00:26.008Z,12.30
2023-05-21T00:01:48.515Z,12.30
2023-05-21T00:03:14.206Z,12.30
2023-05-21T00:04:36.446Z,12.30
2023-05-21T00:06:01.485Z,12.30
2023-05-21T00:07:23.854Z,12.30
2023-05-21T00:08:46.141Z,12.30
2023-05-21T00:10:08.787Z,12.30
2023-05-21T00:11:31.464Z,12.20
2023-05-21T00:12:53.557Z,12.30
2023-05-21T00:14:15.868Z,12.30
2023-05-21T00:15:38.423Z,12.30
2023-05-21T00:17:00.817Z,12.30
2023-05-21T00:18:25.315Z,12.20
2023-05-21T00:19:48.039Z,12.20
2023-05-21T00:21:10.164Z,12.30
2023-05-21T00:22:33.470Z,12.30
2023-05-21T00:23:56.608Z,12.30
2023-05-21T00:25:18.867Z,12.30
2023-05-21T00:26:41.012Z,12.30
2023-05-21T00:28:03.287Z,12.30
2023-05-21T00:29:27.781Z,12.30
2023-05-21T00:30:50.105Z,12.30
2023-05-21T00:32:12.321Z,12.30
2023-05-21T00:33:35.114Z,12.30
2023-05-21T00:34:58.345Z,12.30
2023-05-21T00:36:24.098Z,12.30
2023-05-21T00:37:47.728Z,12.30
2023-05-21T00:39:09.990Z,12.30
2023-05-21T00:40:32.291Z,12.30
2023-05-21T00:41:56.817Z,12.30
2023-05-21T00:43:19.053Z,12.30
2023-05-21T00:46:28.454Z,12.30
2023-05-21T00:47:54.400Z,12.30
2023-05-21T00:49:17.059Z,12.30
2023-05-21T00:50:40.704Z,12.30
2023-05-21T00:52:02.865Z,12.30
2023-05-21T00:53:25.668Z,12.20
2023-05-21T00:54:51.858Z,12.30
2023-05-21T00:56:14.062Z,12.20
2023-05-21T00:57:39.338Z,12.30
2023-05-21T00:59:05.511Z,12.30
2023-05-21T01:00:28.158Z,12.20
2023-05-21T01:01:56.392Z,12.20
2023-05-21T01:03:19.185Z,12.20
2023-05-21T01:04:41.499Z,12.20
2023-05-21T01:06:06.837Z,12.20
2023-05-21T01:07:28.946Z,12.20
2023-05-21T01:08:51.109Z,12.20
2023-05-21T01:10:13.338Z,12.20
2023-05-21T01:11:40.743Z,12.20
2023-05-21T01:13:03.125Z,12.20
2023-05-21T01:14:25.963Z,12.10
2023-05-21T01:15:49.266Z,12.20
2023-05-21T01:17:13.021Z,12.10
2023-05-21T01:18:37.774Z,12.10
2023-05-21T01:20:01.805Z,12.10
2023-05-21T01:21:25.904Z,12.10
2023-05-21T01:22:55.849Z,12.10
2023-05-21T01:24:18.689Z,12.10
2023-05-21T01:25:42.320Z,12.10
2023-05-21T01:27:07.524Z,12.20
2023-05-21T01:28:29.976Z,12.10
2023-05-21T01:29:52.237Z,12.20
2023-05-21T01:31:31.297Z,12.10
2023-05-21T01:33:04.263Z,12.10
2023-05-21T01:34:41.574Z,12.20
2023-05-21T01:36:11.890Z,12.20
2023-05-21T01:37:48.954Z,12.10
2023-05-21T01:39:18.451Z,12.10
2023-05-21T01:40:53.372Z,12.20
2023-05-21T01:42:18.284Z,12.20
2023-05-21T01:43:43.977Z,12.20
2023-05-21T01:45:07.974Z,12.20
2023-05-21T01:46:33.351Z,12.20
2023-05-21T01:47:56.415Z,12.30
2023-05-21T01:49:20.052Z,12.20
2023-05-21T01:50:44.883Z,12.20
2023-05-21T01:52:07.316Z,12.20
2023-05-21T01:53:29.525Z,12.30
2023-05-21T01:54:51.642Z,12.30
2023-05-21T01:56:15.864Z,12.30
2023-05-21T01:57:37.967Z,12.30
2023-05-21T01:59:00.327Z,12.20
2023-05-21T02:00:24.192Z,12.20
2023-05-21T02:01:46.481Z,12.20
2023-05-21T02:03:09.085Z,12.20
2023-05-21T02:04:31.600Z,12.30
2023-05-21T02:05:55.523Z,12.30
2023-05-21T02:07:18.359Z,12.30
2023-05-21T02:08:40.521Z,12.30
2023-05-21T02:10:02.662Z,12.30
2023-05-21T02:11:24.803Z,12.30
2023-05-21T02:12:47.058Z,12.30
2023-05-21T02:14:10.505Z,12.30
2023-05-21T02:15:34.842Z,12.30
2023-05-21T02:16:57.964Z,12.40
2023-05-21T02:18:21.395Z,12.40
2023-05-21T02:19:44.936Z,12.40
2023-05-21T02:21:07.077Z,12.30
2023-05-21T02:22:29.271Z,12.30
2023-05-21T02:23:51.396Z,12.40
2023-05-21T02:25:19.647Z,12.30
2023-05-21T02:26:42.222Z,12.40
2023-05-21T02:28:04.592Z,12.40
2023-05-21T02:29:26.777Z,12.40
2023-05-21T02:30:49.485Z,12.40
2023-05-21T02:32:11.743Z,12.40
2023-05-21T02:33:33.866Z,12.40
2023-05-21T02:34:55.987Z,12.40
2023-05-21T02:36:18.861Z,12.40
2023-05-21T02:37:41.140Z,12.40
2023-05-21T02:39:03.340Z,12.50
2023-05-21T02:40:25.475Z,12.50
2023-05-21T02:41:47.550Z,12.50
2023-05-21T02:43:09.638Z,12.50
2023-05-21T02:44:31.740Z,12.50
2023-05-21T02:45:53.854Z,12.60
2023-05-21T02:47:16.080Z,12.60
2023-05-21T02:48:38.151Z,12.60
2023-05-21T02:50:01.525Z,12.60
2023-05-21T02:51:23.657Z,12.60
2023-05-21T02:52:45.871Z,12.60
2023-05-21T02:54:08.068Z,12.70
2023-05-21T02:55:30.168Z,12.70
2023-05-21T02:56:52.229Z,12.70
2023-05-21T02:58:14.971Z,12.80
2023-05-21T02:59:37.258Z,12.80
2023-05-21T03:00:59.402Z,12.80
2023-05-21T03:02:21.573Z,12.80
2023-05-21T03:03:43.826Z,12.80
2023-05-21T03:05:06.551Z,12.80
2023-05-21T03:06:28.616Z,12.80
2023-05-21T03:07:51.034Z,12.90
2023-05-21T03:09:13.296Z,12.90
2023-05-21T03:10:35.522Z,12.90
2023-05-21T03:11:57.634Z,12.90
2023-05-21T03:13:20.159Z,12.90
2023-05-21T03:14:44.098Z,12.90
2023-05-21T03:16:06.360Z,12.90
2023-05-21T03:17:28.462Z,13.00
2023-05-21T03:18:50.622Z,13.00
2023-05-21T03:20:18.709Z,13.00
2023-05-21T03:21:41.774Z,13.00
2023-05-21T03:23:04.375Z,13.00
2023-05-21T03:24:26.510Z,13.00
2023-05-21T03:25:48.969Z,13.10
2023-05-21T03:27:11.307Z,13.10
2023-05-21T03:28:33.452Z,13.10
2023-05-21T03:29:55.816Z,13.20
2023-05-21T03:31:17.950Z,13.20
2023-05-21T03:32:41.407Z,13.20
2023-05-21T03:34:03.643Z,13.30
2023-05-21T03:35:26.121Z,13.30
2023-05-21T03:36:48.295Z,13.30
2023-05-21T03:38:10.384Z,13.40
2023-05-21T03:39:32.546Z,13.40
2023-05-21T03:40:54.754Z,13.50
2023-05-21T03:42:16.976Z,13.60
2023-05-21T03:43:39.121Z,13.60
2023-05-21T03:45:01.355Z,13.80
2023-05-21T03:46:23.558Z,14.00
2023-05-21T03:47:45.744Z,14.10
2023-05-21T03:49:07.887Z,14.30
2023-05-21T03:50:30.012Z,14.40
2023-05-21T03:51:52.220Z,14.60
2023-05-21T03:53:14.755Z,14.70
2023-05-21T03:54:37.165Z,14.70
2023-05-21T03:55:59.249Z,14.70
2023-05-21T03:57:21.423Z,14.70
2023-05-21T03:58:43.813Z,14.60
2023-05-21T04:00:08.264Z,14.70
2023-05-21T04:01:30.560Z,14.80
2023-05-21T04:02:52.988Z,14.80
2023-05-21T04:04:15.287Z,14.80
2023-05-21T04:05:37.717Z,14.80
2023-05-21T04:07:00.156Z,14.80
2023-05-21T04:08:22.352Z,14.90
2023-05-21T04:09:44.479Z,15.10
2023-05-21T04:11:06.569Z,15.20
2023-05-21T04:12:28.661Z,15.20
2023-05-21T04:13:51.607Z,15.30
2023-05-21T04:15:14.489Z,15.50
2023-05-21T04:16:38.631Z,15.70
2023-05-21T04:18:01.117Z,16.10
2023-05-21T04:19:23.323Z,16.40
2023-05-21T04:20:45.515Z,16.80
2023-05-21T04:22:07.886Z,17.20
2023-05-21T04:23:29.988Z,17.60
2023-05-21T04:24:52.852Z,18.00
2023-05-21T04:26:16.230Z,18.40
2023-05-21T04:27:38.712Z,18.70
2023-05-21T04:29:03.723Z,19.00
2023-05-21T04:30:25.965Z,19.40
2023-05-21T04:31:49.452Z,19.70
2023-05-21T04:33:11.684Z,19.90
2023-05-21T04:34:34.085Z,20.10
2023-05-21T04:35:56.209Z,20.40
2023-05-21T04:37:18.424Z,20.50
2023-05-21T04:38:41.821Z,20.70
2023-05-21T04:40:04.268Z,20.80
2023-05-21T04:41:26.572Z,21.00
2023-05-21T04:42:50.735Z,21.20
2023-05-21T04:44:14.919Z,21.30
2023-05-21T04:45:37.590Z,21.50
2023-05-21T04:47:00.564Z,21.70
2023-05-21T04:48:24.683Z,21.80
2023-05-21T04:49:47.125Z,21.80
2023-05-21T04:51:09.252Z,22.00
2023-05-21T04:52:31.706Z,22.00
2023-05-21T04:53:54.210Z,22.00
2023-05-21T04:55:19.067Z,22.10
2023-05-21T04:56:41.293Z,22.20
2023-05-21T04:58:03.454Z,22.20
2023-05-21T04:59:25.591Z,22.20
2023-05-21T05:00:50.937Z,22.30
2023-05-21T05:02:13.259Z,22.40
2023-05-21T05:03:36.460Z,22.30
2023-05-21T05:04:59.883Z,22.20
2023-05-21T05:06:22.298Z,22.20
2023-05-21T05:07:44.417Z,22.10
2023-05-21T05:09:06.550Z,22.20
2023-05-21T05:10:28.646Z,22.20
2023-05-21T05:11:51.216Z,22.00
2023-05-21T05:13:13.397Z,21.90
2023-05-21T05:14:36.064Z,21.90
2023-05-21T05:15:58.230Z,22.00
2023-05-21T05:17:20.418Z,22.00
2023-05-21T05:18:42.520Z,21.80
2023-05-21T05:20:05.474Z,21.30
2023-05-21T05:21:27.961Z,21.10
2023-05-21T05:22:50.089Z,21.20
2023-05-21T05:24:12.210Z,21.30
2023-05-21T05:25:35.781Z,21.50
2023-05-21T05:26:58.070Z,21.70
2023-05-21T05:28:20.189Z,22.00
2023-05-21T05:29:42.318Z,22.20
2023-05-21T05:31:04.602Z,22.20
2023-05-21T05:32:26.858Z,22.20
2023-05-21T05:33:49.276Z,22.00
2023-05-21T05:35:11.393Z,21.80
2023-05-21T05:36:33.710Z,21.60
2023-05-21T05:37:55.878Z,21.50
2023-05-21T05:39:18.011Z,21.30
2023-05-21T05:40:40.211Z,21.30
2023-05-21T05:42:03.212Z,21.40
2023-05-21T05:43:26.428Z,21.50
2023-05-21T05:44:48.545Z,21.60
2023-05-21T05:46:10.741Z,21.70
2023-05-21T05:47:32.932Z,21.80
2023-05-21T05:48:55.110Z,21.70
2023-05-21T05:50:17.311Z,21.70
2023-05-21T05:51:39.593Z,22.00
2023-05-21T05:53:01.772Z,22.20
2023-05-21T05:54:23.873Z,22.20
2023-05-21T05:55:45.964Z,22.20
2023-05-21T05:57:08.141Z,22.40
2023-05-21T05:58:30.864Z,22.60
2023-05-21T05:59:53.049Z,22.80
2023-05-21T06:01:15.254Z,22.70
2023-05-21T06:02:37.657Z,22.60
2023-05-21T06:04:00.012Z,22.40
2023-05-21T06:05:22.165Z,22.00
2023-05-21T06:06:44.326Z,21.70
2023-05-21T06:08:06.512Z,21.50
2023-05-21T06:09:28.916Z,21.40
2023-05-21T06:10:51.180Z,21.30
2023-05-21T06:12:15.950Z,21.10
2023-05-21T06:13:38.153Z,21.00
2023-05-21T06:15:00.868Z,21.00
2023-05-21T06:16:23.196Z,20.80
2023-05-21T06:17:45.501Z,20.70
2023-05-21T06:19:07.662Z,20.60
2023-05-21T06:20:30.364Z,20.40
2023-05-21T06:21:52.583Z,20.20
2023-05-21T06:23:14.811Z,20.00
2023-05-21T06:24:37.248Z,19.90
2023-05-21T06:25:59.439Z,19.80
2023-05-21T06:27:21.587Z,19.60
2023-05-21T06:28:43.729Z,19.50
2023-05-21T06:30:07.309Z,19.30
2023-05-21T06:31:29.570Z,19.20
2023-05-21T06:32:51.807Z,19.00
2023-05-21T06:34:14.117Z,19.00
2023-05-21T06:35:37.453Z,19.00
2023-05-21T06:36:59.916Z,18.90
2023-05-21T06:38:21.994Z,18.80
2023-05-21T06:39:44.194Z,18.80
2023-05-21T06:41:06.487Z,18.80
2023-05-21T06:42:28.622Z,18.80
2023-05-21T06:43:50.726Z,18.90
2023-05-21T06:45:12.905Z,18.90
2023-05-21T06:46:35.922Z,18.80
2023-05-21T06:47:58.107Z,18.80
2023-05-21T06:49:20.231Z,18.80
2023-05-21T06:50:42.579Z,18.80
2023-05-21T06:52:05.015Z,18.70
2023-05-21T06:53:27.571Z,18.80
2023-05-21T06:54:49.824Z,18.70
2023-05-21T06:56:12.972Z,18.80
2023-05-21T06:57:35.112Z,18.80
2023-05-21T06:58:57.341Z,18.90
2023-05-21T07:00:19.454Z,18.90
2023-05-21T07:01:44.856Z,19.00
2023-05-21T07:03:07.333Z,18.90
2023-05-21T07:04:29.511Z,18.90
2023-05-21T07:05:51.655Z,18.80
2023-05-21T07:07:13.792Z,18.90
2023-05-21T07:08:36.126Z,19.00
2023-05-21T07:09:58.221Z,19.00
2023-05-21T07:11:21.296Z,19.10
2023-05-21T07:12:43.447Z,19.10
2023-05-21T07:14:05.667Z,19.10
2023-05-21T07:15:27.791Z,19.20
2023-05-21T07:16:50.040Z,19.20
2023-05-21T07:18:13.221Z,19.10
2023-05-21T07:19:35.463Z,19.10
2023-05-21T07:20:57.544Z,19.00
2023-05-21T07:22:19.668Z,19.00
2023-05-21T07:23:42.096Z,19.00
2023-05-21T07:25:04.547Z,19.20
2023-05-21T07:26:26.618Z,19.30
2023-05-21T07:27:48.669Z,19.40
2023-05-21T07:29:10.814Z,19.50
2023-05-21T07:30:32.918Z,19.50
2023-05-21T07:31:55.069Z,19.50
2023-05-21T07:33:17.274Z,19.50
2023-05-21T07:34:39.445Z,19.50
2023-05-21T07:36:01.611Z,19.50
2023-05-21T07:37:23.755Z,19.50
2023-05-21T07:38:46.186Z,19.50
2023-05-21T07:40:09.009Z,19.50
2023-05-21T07:41:31.250Z,19.40
2023-05-21T07:42:53.445Z,19.30
2023-05-21T07:44:15.593Z,19.20
2023-05-21T07:45:38.067Z,19.10
2023-05-21T07:47:00.312Z,19.10
2023-05-21T07:48:22.525Z,19.00
2023-05-21T07:49:44.658Z,19.00
2023-05-21T07:51:06.802Z,19.00
2023-05-21T07:52:29.080Z,19.10
2023-05-21T07:53:52.323Z,19.20
2023-05-21T07:55:15.998Z,19.20
2023-05-21T07:56:38.643Z,19.20
2023-05-21T07:58:01.640Z,19.20
2023-05-21T07:59:24.515Z,19.10
2023-05-21T08:00:47.560Z,19.00
2023-05-21T08:02:09.642Z,19.00
2023-05-21T08:03:31.928Z,18.90
2023-05-21T08:04:55.099Z,18.90
2023-05-21T08:06:17.309Z,19.00
2023-05-21T08:07:39.860Z,19.00
2023-05-21T08:09:01.986Z,19.00
2023-05-21T08:10:24.064Z,19.10
2023-05-21T08:11:46.567Z,19.20
2023-05-21T08:13:08.702Z,19.30
2023-05-21T08:14:30.905Z,19.40
2023-05-21T08:15:53.683Z,19.50
2023-05-21T08:17:16.309Z,19.60
2023-05-21T08:18:38.449Z,19.70
2023-05-21T08:20:00.674Z,19.80
2023-05-21T08:21:23.079Z,19.90
2023-05-21T08:22:45.191Z,19.80
2023-05-21T08:24:07.515Z,19.80
2023-05-21T08:25:30.033Z,19.70
2023-05-21T08:26:52.115Z,19.50
2023-05-21T08:28:14.335Z,19.50
2023-05-21T08:29:36.566Z,19.50
2023-05-21T08:30:58.945Z,19.50
2023-05-21T08:32:21.150Z,19.60
2023-05-21T08:33:53.581Z,19.60
2023-05-21T08:35:16.221Z,19.60
2023-05-21T08:36:38.385Z,19.60
2023-05-21T08:38:00.704Z,19.70
2023-05-21T08:39:22.849Z,19.80
2023-05-21T08:40:47.715Z,19.90
2023-05-21T08:42:37.386Z,20.00
2023-05-21T08:44:02.140Z,20.00
2023-05-21T08:45:24.419Z,20.00
2023-05-21T08:46:50.829Z,20.00
2023-05-21T08:48:16.244Z,19.90
2023-05-21T08:49:38.515Z,19.90
2023-05-21T08:51:01.291Z,19.90
2023-05-21T08:52:24.063Z,20.00
2023-05-21T08:53:46.320Z,20.00
2023-05-21T08:55:09.587Z,20.00
2023-05-21T08:56:32.610Z,20.00
2023-05-21T08:57:55.361Z,19.90
2023-05-21T08:59:19.925Z,19.90
2023-05-21T09:00:42.009Z,19.80
2023-05-21T09:02:05.121Z,19.90
2023-05-21T09:03:29.275Z,20.00
2023-05-21T09:04:57.021Z,20.10
2023-05-21T09:06:19.658Z,20.30
2023-05-21T09:08:07.948Z,20.40
2023-05-21T09:09:46.408Z,20.50
2023-05-21T09:11:08.674Z,20.70
2023-05-21T09:12:31.702Z,20.80
2023-05-21T09:13:55.269Z,20.90
2023-05-21T09:15:19.524Z,20.90
2023-05-21T09:16:42.258Z,20.80
2023-05-21T09:18:04.621Z,20.60
2023-05-21T09:19:26.817Z,20.40
2023-05-21T09:20:49.359Z,20.30
2023-05-21T09:22:11.488Z,20.20
2023-05-21T09:23:33.608Z,20.10
2023-05-21T09:24:55.726Z,20.10
2023-05-21T09:26:17.887Z,20.10
2023-05-21T09:27:40.347Z,20.10
2023-05-21T09:29:02.530Z,20.10
2023-05-21T09:30:27.618Z,20.20
2023-05-21T09:31:52.126Z,20.10
2023-05-21T09:33:26.081Z,20.10
2023-05-21T09:34:48.545Z,20.30
2023-05-21T09:36:11.740Z,20.40
2023-05-21T09:37:38.295Z,20.50
2023-05-21T09:39:00.579Z,20.40
2023-05-21T09:40:24.519Z,20.40
2023-05-21T09:41:46.701Z,20.20
2023-05-21T09:43:08.757Z,20.20
2023-05-21T09:44:30.909Z,20.30
2023-05-21T09:45:55.459Z,20.30
2023-05-21T09:47:20.878Z,20.40
2023-05-21T09:48:43.646Z,20.40
2023-05-21T09:50:06.533Z,20.50
2023-05-21T09:51:28.673Z,20.40
2023-05-21T09:52:52.905Z,20.30
2023-05-21T09:54:15.108Z,20.30
2023-05-21T09:55:37.202Z,20.20
2023-05-21T09:57:02.673Z,20.30
2023-05-21T09:58:24.797Z,20.30
2023-05-21T09:59:50.563Z,20.40
2023-05-21T10:01:13.362Z,20.40
2023-05-21T10:02:38.546Z,20.50
2023-05-21T10:04:04.283Z,20.70
2023-05-21T10:05:28.751Z,20.90
2023-05-21T10:06:52.399Z,21.10
2023-05-21T10:08:16.477Z,21.20
2023-05-21T10:09:39.250Z,21.30
2023-05-21T10:11:02.731Z,21.30
2023-05-21T10:12:25.925Z,21.30
2023-05-21T10:13:54.198Z,21.20
2023-05-21T10:15:20.837Z,21.10
2023-05-21T10:16:44.353Z,21.10
2023-05-21T10:18:08.415Z,21.20
2023-05-21T10:19:32.772Z,21.30
2023-05-21T10:20:56.521Z,21.30
2023-05-21T10:22:18.721Z,21.30
2023-05-21T10:23:42.723Z,21.30
2023-05-21T10:25:06.892Z,21.30
2023-05-21T10:26:30.015Z,21.40
2023-05-21T10:27:55.646Z,21.40
2023-05-21T10:29:19.750Z,21.30
2023-05-21T10:30:42.661Z,21.30
2023-05-21T10:32:06.175Z,21.20
2023-05-21T10:33:29.643Z,21.40
2023-05-21T10:34:58.610Z,21.60
2023-05-21T10:36:27.798Z,21.60
2023-05-21T10:37:52.164Z,21.50
2023-05-21T10:39:16.861Z,21.40
2023-05-21T10:40:39.279Z,21.20
2023-05-21T10:42:18.925Z,21.20
2023-05-21T10:43:44.063Z,21.20
2023-05-21T10:45:24.702Z,21.10
2023-05-21T10:47:07.047Z,21.10
2023-05-21T10:48:35.030Z,21.00
2023-05-21T10:50:06.060Z,21.00
2023-05-21T10:51:56.307Z,21.00
2023-05-21T10:53:55.615Z,21.00
2023-05-21T10:55:36.429Z,20.80
2023-05-21T10:57:04.642Z,20.60
2023-05-21T10:58:36.423Z,20.40
2023-05-21T10:59:59.056Z,20.30
2023-05-21T11:01:22.032Z,20.30
2023-05-21T11:02:45.721Z,20.20
2023-05-21T11:04:08.242Z,20.30
2023-05-21T11:05:51.456Z,20.40
2023-05-21T11:07:13.734Z,20.50
2023-05-21T11:08:37.079Z,20.60
2023-05-21T11:10:34.369Z,20.70
2023-05-21T11:12:00.983Z,20.80
2023-05-21T11:13:23.608Z,20.90
2023-05-21T11:14:58.438Z,20.90
2023-05-21T11:16:25.852Z,20.70
2023-05-21T11:17:50.497Z,20.60
2023-05-21T11:19:19.055Z,20.50
2023-05-21T11:20:51.098Z,20.40
2023-05-21T11:22:26.367Z,20.40
2023-05-21T11:23:58.191Z,20.50
2023-05-21T11:25:20.814Z,20.60
2023-05-21T11:26:49.091Z,20.80
2023-05-21T11:28:11.217Z,21.00
2023-05-21T11:29:41.804Z,21.10
2023-05-21T11:31:26.860Z,21.30
2023-05-21T11:33:07.995Z,21.40
2023-05-21T11:34:46.159Z,21.60
2023-05-21T11:36:13.160Z,21.50
2023-05-21T11:37:35.947Z,21.40
2023-05-21T11:39:17.919Z,21.30
2023-05-21T11:40:51.651Z,21.40
2023-05-21T11:42:27.435Z,21.50
2023-05-21T11:44:01.138Z,21.50
2023-05-21T11:45:28.126Z,21.50
2023-05-21T11:46:52.437Z,21.40
2023-05-21T11:48:14.742Z,21.30
2023-05-21T11:49:37.503Z,21.30
2023-05-21T11:51:01.114Z,21.30
2023-05-21T11:52:23.715Z,21.20
2023-05-21T11:53:48.863Z,21.20
2023-05-21T11:55:11.444Z,21.20
2023-05-21T11:56:33.967Z,21.10
2023-05-21T11:57:58.341Z,21.10
2023-05-21T11:59:20.710Z,21.10
2023-05-21T12:00:42.930Z,21.10
2023-05-21T12:02:05.487Z,21.10
2023-05-21T12:03:30.423Z,21.20
2023-05-21T12:04:52.853Z,21.20
2023-05-21T12:06:17.406Z,21.30
2023-05-21T12:07:39.662Z,21.40
2023-05-21T12:09:01.947Z,21.50
2023-05-21T12:10:24.497Z,21.40
2023-05-21T12:11:46.730Z,21.20
2023-05-21T12:13:09.903Z,21.10
2023-05-21T12:14:32.229Z,21.10
2023-05-21T12:15:54.829Z,21.00
2023-05-21T12:17:25.017Z,21.10
2023-05-21T12:18:47.155Z,21.10
2023-05-21T12:20:10.775Z,21.10
2023-05-21T12:21:33.622Z,21.10
2023-05-21T12:22:58.086Z,21.10
2023-05-21T12:24:20.180Z,21.20
2023-05-21T12:25:42.278Z,21.20
2023-05-21T12:27:09.662Z,21.30
2023-05-21T12:28:32.151Z,21.30
2023-05-21T12:29:54.901Z,21.40
2023-05-21T12:31:17.113Z,21.40
2023-05-21T12:32:44.263Z,21.40
2023-05-21T12:34:08.160Z,21.40
2023-05-21T12:35:31.680Z,21.50
2023-05-21T12:36:53.830Z,21.60
2023-05-21T12:38:16.426Z,21.60
2023-05-21T12:39:49.394Z,21.70
2023-05-21T12:41:11.485Z,21.80
2023-05-21T12:42:36.731Z,21.90
2023-05-21T12:43:58.973Z,22.00
2023-05-21T12:45:22.693Z,22.10
2023-05-21T12:46:45.102Z,22.20
2023-05-21T12:48:07.600Z,22.30
2023-05-21T12:49:59.347Z,22.50
2023-05-21T12:51:21.488Z,22.60
2023-05-21T12:52:44.516Z,22.60
2023-05-21T12:54:13.114Z,22.70
2023-05-21T12:55:36.001Z,22.80
2023-05-21T12:56:58.125Z,22.90
2023-05-21T12:58:22.383Z,23.00
2023-05-21T12:59:49.578Z,23.00
2023-05-21T13:01:12.523Z,23.10
2023-05-21T13:02:42.121Z,23.20
2023-05-21T13:04:05.399Z,23.20
2023-05-21T13:05:27.642Z,23.20
2023-05-21T13:06:49.786Z,23.20
2023-05-21T13:08:14.115Z,23.20
2023-05-21T13:09:36.434Z,23.20
2023-05-21T13:10:58.517Z,23.10
2023-05-21T13:12:26.545Z,23.10
2023-05-21T13:13:48.646Z,23.20
2023-05-21T13:15:11.091Z,23.30
2023-05-21T13:16:33.769Z,23.40
2023-05-21T13:17:59.004Z,23.60
2023-05-21T13:19:21.997Z,23.70
2023-05-21T13:20:44.056Z,23.80
2023-05-21T13:22:07.149Z,23.90
2023-05-21T13:23:29.243Z,23.80
2023-05-21T13:24:51.411Z,23.50
2023-05-21T13:26:13.474Z,23.40
2023-05-21T13:27:35.592Z,23.30
2023-05-21T13:28:57.774Z,23.30
2023-05-21T13:30:21.429Z,23.20
2023-05-21T13:31:44.292Z,23.20
2023-05-21T13:33:06.721Z,23.20
2023-05-21T13:34:28.868Z,23.20
2023-05-21T13:35:51.808Z,23.30
2023-05-21T13:37:14.413Z,23.30
2023-05-21T13:38:36.529Z,23.40
2023-05-21T13:39:58.572Z,23.50
2023-05-21T13:41:21.251Z,23.60
2023-05-21T13:42:48.353Z,23.70
2023-05-21T13:44:10.499Z,23.50
2023-05-21T13:45:33.814Z,23.20
2023-05-21T13:46:56.002Z,23.00
2023-05-21T13:48:18.140Z,22.70
2023-05-21T13:49:40.693Z,22.50
2023-05-21T13:51:02.818Z,22.40
2023-05-21T13:52:25.055Z,22.30
2023-05-21T13:53:47.488Z,22.40
2023-05-21T13:55:10.614Z,22.40
2023-05-21T13:56:33.815Z,22.30
2023-05-21T13:57:55.961Z,22.20
2023-05-21T13:59:18.230Z,22.10
2023-05-21T14:00:41.292Z,22.10
2023-05-21T14:02:03.988Z,22.00
2023-05-21T14:03:27.537Z,22.00
2023-05-21T14:04:49.736Z,21.90
2023-05-21T14:06:11.973Z,22.00
2023-05-21T14:07:34.210Z,22.00
2023-05-21T14:08:56.341Z,22.00
2023-05-21T14:10:18.707Z,22.00
2023-05-21T14:11:41.434Z,22.00
2023-05-21T14:13:11.968Z,22.10
2023-05-21T14:14:41.397Z,22.10
2023-05-21T14:16:03.586Z,22.20
2023-05-21T14:17:25.792Z,22.30
2023-05-21T14:18:48.020Z,22.30
2023-05-21T14:20:10.855Z,22.50
2023-05-21T14:21:32.970Z,22.50
2023-05-21T14:22:55.085Z,22.70
2023-05-21T14:24:17.180Z,22.70
2023-05-21T14:25:39.237Z,22.70
2023-05-21T14:27:01.378Z,22.70
2023-05-21T14:28:23.534Z,22.60
2023-05-21T14:29:45.752Z,22.60
2023-05-21T14:31:08.099Z,22.50
2023-05-21T14:32:30.718Z,22.40
2023-05-21T14:33:52.826Z,22.50
2023-05-21T14:35:14.872Z,22.50
2023-05-21T14:36:37.070Z,22.50
2023-05-21T14:37:59.154Z,22.60
2023-05-21T14:39:21.275Z,22.60
2023-05-21T14:40:43.377Z,22.60
2023-05-21T14:42:05.730Z,22.60
2023-05-21T14:43:27.805Z,22.60
2023-05-21T14:44:49.837Z,22.60
2023-05-21T14:46:12.024Z,22.50
2023-05-21T14:47:34.243Z,22.30
2023-05-21T14:48:59.197Z,22.20
2023-05-21T14:50:21.335Z,22.10
2023-05-21T14:51:44.944Z,22.10
2023-05-21T14:53:11.097Z,22.00
2023-05-21T14:54:33.275Z,22.10
2023-05-21T14:55:55.359Z,22.10
2023-05-21T14:57:17.444Z,22.20
2023-05-21T14:58:39.661Z,22.20
2023-05-21T15:00:01.878Z,22.20
2023-05-21T15:01:24.110Z,22.10
2023-05-21T15:02:46.431Z,22.10
2023-05-21T15:04:08.678Z,22.10
2023-05-21T15:05:31.395Z,22.20
2023-05-21T15:06:53.531Z,22.10
2023-05-21T15:08:15.726Z,22.10
2023-05-21T15:09:37.884Z,22.10
2023-05-21T15:10:59.994Z,22.00
2023-05-21T15:12:22.196Z,22.00
2023-05-21T15:13:44.331Z,22.00
2023-05-21T15:15:07.871Z,22.00
2023-05-21T15:16:30.025Z,22.00
2023-05-21T15:17:52.324Z,22.10
2023-05-21T15:19:14.520Z,22.20
2023-05-21T15:20:36.710Z,22.20
2023-05-21T15:21:58.888Z,22.20
2023-05-21T15:23:21.053Z,22.20
2023-05-21T15:24:44.575Z,22.30
2023-05-21T15:26:06.768Z,22.30
2023-05-21T15:27:29.152Z,22.40
2023-05-21T15:28:51.283Z,22.40
2023-05-21T15:30:13.471Z,22.50
2023-05-21T15:31:35.617Z,22.60
2023-05-21T15:32:57.887Z,22.60
2023-05-21T15:34:19.999Z,22.70
2023-05-21T15:35:42.749Z,22.80
2023-05-21T15:37:05.572Z,22.90
2023-05-21T15:38:27.667Z,23.00
2023-05-21T15:39:50.340Z,23.20
2023-05-21T15:41:12.610Z,23.20
2023-05-21T15:42:34.754Z,23.30
2023-05-21T15:43:59.614Z,23.30
2023-05-21T15:45:21.856Z,23.30
2023-05-21T15:46:44.081Z,23.30
2023-05-21T15:48:06.813Z,23.20
2023-05-21T15:49:29.005Z,23.10
2023-05-21T15:50:51.171Z,23.00
2023-05-21T15:52:13.318Z,22.90
2023-05-21T15:53:35.445Z,22.90
2023-05-21T15:54:57.732Z,22.80
2023-05-21T15:56:19.946Z,22.80
2023-05-21T15:57:42.149Z,22.80
2023-05-21T15:59:04.302Z,22.90
2023-05-21T16:00:26.572Z,22.80
2023-05-21T16:01:48.795Z,22.70
2023-05-21T16:03:12.584Z,22.60
2023-05-21T16:04:34.920Z,22.50
2023-05-21T16:05:57.123Z,22.40
2023-05-21T16:07:19.413Z,22.20
2023-05-21T16:08:41.673Z,22.20
2023-05-21T16:10:03.965Z,22.10
2023-05-21T16:11:27.133Z,22.10
2023-05-21T16:12:49.284Z,22.00
2023-05-21T16:14:12.392Z,21.90
2023-05-21T16:15:34.736Z,21.90
2023-05-21T16:16:56.987Z,21.80
2023-05-21T16:18:19.102Z,21.80
2023-05-21T16:19:41.323Z,21.80
2023-05-21T16:21:03.655Z,21.80
2023-05-21T16:22:26.173Z,21.90
2023-05-21T16:23:48.251Z,21.90
2023-05-21T16:25:10.440Z,21.80
2023-05-21T16:26:32.586Z,21.80
2023-05-21T16:27:54.732Z,21.80
2023-05-21T16:29:16.864Z,21.80
2023-05-21T16:30:39.023Z,21.80
2023-05-21T16:32:01.196Z,21.80
2023-05-21T16:33:23.390Z,21.80
2023-05-21T16:34:45.568Z,21.70
2023-05-21T16:36:07.727Z,21.60
2023-05-21T16:37:29.879Z,21.60
2023-05-21T16:38:52.443Z,21.50
2023-05-21T16:40:14.634Z,21.40
2023-05-21T16:41:36.845Z,21.40
2023-05-21T16:43:01.897Z,21.40
2023-05-21T16:44:24.365Z,21.40
2023-05-21T16:45:47.141Z,21.40
2023-05-21T16:47:09.312Z,21.40
2023-05-21T16:48:32.742Z,21.40
2023-05-21T16:49:55.849Z,21.30
2023-05-21T16:51:18.229Z,21.30
2023-05-21T16:52:40.373Z,21.30
2023-05-21T16:54:04.246Z,21.30
2023-05-21T16:55:26.348Z,21.30
2023-05-21T16:56:48.483Z,21.30
2023-05-21T16:58:10.963Z,21.30
2023-05-21T16:59:33.114Z,21.20
2023-05-21T17:00:55.359Z,21.20
2023-05-21T17:02:17.567Z,21.30
2023-05-21T17:03:42.445Z,21.30
2023-05-21T17:05:05.929Z,21.30
2023-05-21T17:06:28.080Z,21.20
2023-05-21T17:07:50.259Z,21.20
2023-05-21T17:09:12.379Z,21.20
2023-05-21T17:10:34.509Z,21.20
2023-05-21T17:11:56.824Z,21.20
2023-05-21T17:13:22.596Z,21.10
2023-05-21T17:14:45.475Z,21.10
2023-05-21T17:16:07.659Z,21.00
2023-05-21T17:17:30.382Z,21.00
2023-05-21T17:18:52.709Z,20.90
2023-05-21T17:20:15.135Z,20.90
2023-05-21T17:21:37.408Z,20.80
2023-05-21T17:22:59.614Z,20.80
2023-05-21T17:24:21.879Z,20.80
2023-05-21T17:25:44.132Z,20.70
2023-05-21T17:27:06.581Z,20.70
2023-05-21T17:28:28.964Z,20.70
2023-05-21T17:29:51.133Z,20.60
2023-05-21T17:31:14.206Z,20.60
2023-05-21T17:32:36.416Z,20.60
2023-05-21T17:33:59.111Z,20.60
2023-05-21T17:35:21.417Z,20.60
2023-05-21T17:36:43.626Z,20.60
2023-05-21T17:38:05.846Z,20.50
2023-05-21T17:39:28.122Z,20.50
2023-05-21T17:40:50.675Z,20.50
2023-05-21T17:42:12.791Z,20.50
2023-05-21T17:43:34.930Z,20.50
2023-05-21T17:44:57.064Z,20.50
2023-05-21T17:46:19.309Z,20.50
2023-05-21T17:47:41.433Z,20.40
2023-05-21T17:49:03.785Z,20.40
2023-05-21T17:50:26.357Z,20.40
2023-05-21T17:51:48.898Z,20.30
2023-05-21T17:53:11.094Z,20.30
2023-05-21T17:54:34.659Z,20.30
2023-05-21T17:55:56.877Z,20.30
2023-05-21T17:57:20.222Z,20.20
2023-05-21T17:58:42.394Z,20.20